Spearman, TX

9:21 AM CDT on September 30, 2016 (GMT -0500)
Pampa / Mesa Vista

Weather History for KBPC - March, 2014

Change the Weather History Date:

Saturday, March 22, 2014

  Actual Average (KBGD) Record (KBGD)
Temperature  
Mean Temperature 44 °F 52 °F  
Max Temperature 57 °F 65 °F 85 °F (2016)
Min Temperature 32 °F 38 °F 17 °F (1955)
Degree Days  
Heating Degree Days 20 14  
Month to date heating degree days 373  
Since 1 July heating degree days 3366  
Cooling Degree Days 0 0  
Month to date cooling degree days 0  
Year to date cooling degree days 0  
Moisture  
Dew Point 23 °F    
Average Humidity 48    
Maximum Humidity 87    
Minimum Humidity 25    
Precipitation  
Precipitation 0.00 in 0.04 in 1.18 in (2000)
Month to date precipitation 0.92  
Year to date precipitation 2.13  
Snow  
Snow 0.00 in - 0.40 in (1983)
Month to date snowfall  
Since 1 July snowfall  
Snow Depth -    
Sea Level Pressure  
Sea Level Pressure 30.16 in    
Wind  
Wind Speed 9 mph (ENE)    
Max Wind Speed 24 mph    
Max Gust Speed 32 mph    
Visibility 10 miles    
Events      
T = Trace of Precipitation, MM = Missing Value Source: NWS Daily Summary

Daily Weather History Graph

Daily Weather History Graph

Search for Another Location

Airport or City:

Trip Planner

Search our weather history database for the weather conditions in past years. The results will help you decide how hot, cold, wet, or windy it might be!

Date:

Astronomy

Mar. 22, 2014 Rise Set
Actual Time 7:44 AM CDT 7:57 PM CDT
Civil Twilight 7:19 AM CDT 8:23 PM CDT
Nautical Twilight 6:49 AM CDT 8:53 PM CDT
Astronomical Twilight 6:19 AM CDT 9:23 PM CDT
Moon 1:09 AM CDT (3/22) 11:39 AM CDT (3/22)
Length of Visible Light 13h 03m
Length of Day
12h 12m
Waning Gibbous, 65% of the Moon is Illuminated
Mar 22
Waning Gibbous
Mar 23
Last Quarter
Mar 30
New
Apr 7
First Quarter
Apr 15
Full

Hourly Weather History & Observations

Time (CDT) Temp. Windchill Dew Point Humidity Pressure Visibility Wind Dir Wind Speed Gust Speed Precip Events Conditions
12:15 AM 42.8 °F 39.3 °F 19.4 °F 39% 30.11 in 10.0 mi NE 5.8 mph - N/A   Clear
12:35 AM 44.6 °F - 21.2 °F 39% 30.12 in 10.0 mi Calm Calm - N/A   Clear
12:55 AM 42.8 °F 40.1 °F 19.4 °F 39% 30.12 in 10.0 mi North 4.6 mph - N/A   Clear
1:15 AM 41.0 °F 37.1 °F 21.2 °F 45% 30.12 in 10.0 mi NNE 5.8 mph - N/A   Clear
1:35 AM 39.2 °F 35.0 °F 21.2 °F 49% 30.12 in 10.0 mi NNE 5.8 mph - N/A   Clear
1:55 AM 37.4 °F 33.8 °F 21.2 °F 52% 30.11 in 10.0 mi NE 4.6 mph - N/A   Clear
2:15 AM 37.4 °F 34.9 °F 21.2 °F 52% 30.12 in 10.0 mi NE 3.5 mph - N/A   Clear
2:35 AM 37.4 °F 33.8 °F 21.2 °F 52% 30.13 in 10.0 mi NE 4.6 mph - N/A   Clear
2:55 AM 39.2 °F 33.6 °F 21.2 °F 49% 30.13 in 10.0 mi NE 8.1 mph - N/A   Clear
3:15 AM 41.0 °F 34.3 °F 21.2 °F 45% 30.14 in 10.0 mi NE 11.5 mph - N/A   Clear
3:35 AM 41.0 °F 33.9 °F 21.2 °F 45% 30.13 in 10.0 mi NE 12.7 mph - N/A   Clear
3:55 AM 41.0 °F 33.5 °F 23.0 °F 49% 30.12 in 10.0 mi ENE 13.8 mph - N/A   Clear
4:15 AM 39.2 °F 31.2 °F 23.0 °F 52% 30.12 in 10.0 mi ENE 13.8 mph 23.0 mph N/A   Clear
4:35 AM 39.2 °F 30.8 °F 23.0 °F 52% 30.13 in 10.0 mi ENE 15.0 mph - N/A   Clear
4:55 AM 37.4 °F 30.3 °F 24.8 °F 60% 30.13 in 10.0 mi ENE 10.4 mph 16.1 mph N/A   Clear
5:15 AM 35.6 °F 29.2 °F 24.8 °F 65% 30.13 in 10.0 mi ENE 8.1 mph - N/A   Clear
5:35 AM 35.6 °F 29.2 °F 26.6 °F 70% 30.15 in 10.0 mi ENE 8.1 mph - N/A   Clear
5:55 AM 35.6 °F 29.2 °F 26.6 °F 70% 30.15 in 10.0 mi ENE 8.1 mph - N/A   Clear
6:15 AM 32.0 °F 27.5 °F 24.8 °F 75% 30.16 in 10.0 mi NE 4.6 mph - N/A   Clear
6:35 AM 32.0 °F 25.6 °F 26.6 °F 80% 30.17 in 10.0 mi NE 6.9 mph - N/A   Clear
6:55 AM 33.8 °F 26.4 °F 26.6 °F 75% 30.17 in 10.0 mi NE 9.2 mph - N/A   Clear
7:15 AM 32.0 °F 25.6 °F 26.6 °F 80% 30.18 in 10.0 mi NE 6.9 mph - N/A   Clear
7:35 AM 33.8 °F 26.4 °F 28.4 °F 81% 30.19 in 10.0 mi NE 9.2 mph - N/A   Clear
7:55 AM 32.0 °F 24.8 °F 28.4 °F 87% 30.20 in 10.0 mi NE 8.1 mph - N/A   Clear
8:15 AM 32.0 °F 25.6 °F 28.4 °F 87% 30.21 in 10.0 mi NE 6.9 mph - N/A   Clear
8:35 AM 33.8 °F 24.8 °F 28.4 °F 81% 30.22 in 10.0 mi NE 12.7 mph - N/A   Clear
8:55 AM 33.8 °F 25.8 °F 28.4 °F 81% 30.22 in 10.0 mi NE 10.4 mph - N/A   Clear
9:15 AM 35.6 °F 27.5 °F 28.4 °F 75% 30.23 in 10.0 mi ENE 11.5 mph 17.3 mph N/A   Clear
9:35 AM 35.6 °F 26.6 °F 28.4 °F 75% 30.23 in 10.0 mi NE 13.8 mph - N/A   Clear
9:55 AM 37.4 °F 29.8 °F 28.4 °F 70% 30.23 in 10.0 mi ENE 11.5 mph - N/A   Clear
10:15 AM 37.4 °F 30.3 °F 28.4 °F 70% 30.22 in 10.0 mi ENE 10.4 mph 18.4 mph N/A   Clear
10:35 AM 39.2 °F 32.5 °F 28.4 °F 65% 30.22 in 10.0 mi ENE 10.4 mph 16.1 mph N/A   Clear
10:55 AM 39.2 °F 33.0 °F 28.4 °F 65% 30.22 in 10.0 mi ENE 9.2 mph 17.3 mph N/A   Clear
11:15 AM 41.0 °F 35.2 °F 28.4 °F 61% 30.23 in 10.0 mi East 9.2 mph - N/A   Clear
11:35 AM 42.8 °F 38.0 °F 28.4 °F 57% 30.22 in 10.0 mi East 8.1 mph - N/A   Clear
11:55 AM 44.6 °F 39.7 °F 28.4 °F 53% 30.21 in 10.0 mi ENE 9.2 mph - N/A   Clear
12:15 PM 44.6 °F 40.7 °F 28.4 °F 53% 30.21 in 10.0 mi East 6.9 mph - N/A   Clear
12:35 PM 46.4 °F 41.9 °F 28.4 °F 50% 30.19 in 10.0 mi NE 9.2 mph - N/A   Clear
12:55 PM 46.4 °F 42.4 °F 26.6 °F 46% 30.18 in 10.0 mi ENE 8.1 mph - N/A   Clear
1:15 PM 48.2 °F - 26.6 °F 43% 30.17 in 10.0 mi ENE 11.5 mph 16.1 mph N/A   Clear
1:35 PM 50.0 °F - 26.6 °F 40% 30.16 in 10.0 mi ESE 12.7 mph - N/A   Clear
1:55 PM 51.8 °F - 24.8 °F 35% 30.15 in 10.0 mi East 11.5 mph 17.3 mph N/A   Clear
2:15 PM 51.8 °F - 24.8 °F 35% 30.14 in 10.0 mi ESE 6.9 mph 17.3 mph N/A   Clear
2:35 PM 53.6 °F - 23.0 °F 30% 30.12 in 10.0 mi East 6.9 mph - N/A   Clear
2:55 PM 53.6 °F - 23.0 °F 30% 30.11 in 10.0 mi ESE 11.5 mph 16.1 mph N/A   Clear
3:15 PM 53.6 °F - 23.0 °F 30% 30.09 in 10.0 mi ESE 10.4 mph 17.3 mph N/A   Clear
3:35 PM 55.4 °F - 23.0 °F 29% 30.09 in 10.0 mi ENE 10.4 mph 17.3 mph N/A   Clear
3:55 PM 55.4 °F - 21.2 °F 26% 30.08 in 10.0 mi SE 9.2 mph - N/A   Clear
4:15 PM 57.2 °F - 21.2 °F 25% 30.07 in 10.0 mi SE 8.1 mph 16.1 mph N/A   Clear
4:35 PM 57.2 °F - 23.0 °F 27% 30.06 in 10.0 mi ESE 5.8 mph - N/A   Clear
4:55 PM 57.2 °F - 23.0 °F 27% 30.05 in 10.0 mi SE 8.1 mph - N/A   Clear
5:15 PM 57.2 °F - 21.2 °F 25% 30.05 in 10.0 mi East 5.8 mph - N/A   Clear
5:35 PM 57.2 °F - 21.2 °F 25% 30.05 in 10.0 mi SE 8.1 mph - N/A   Clear
5:55 PM 57.2 °F - 23.0 °F 27% 30.05 in 10.0 mi East 6.9 mph 16.1 mph N/A   Clear
6:15 PM 55.4 °F - 23.0 °F 29% 30.07 in 10.0 mi East 4.6 mph - N/A   Clear
6:35 PM 55.4 °F - 23.0 °F 29% 30.07 in 10.0 mi ENE 8.1 mph - N/A   Clear
6:55 PM 55.4 °F - 21.2 °F 26% 30.08 in 10.0 mi ENE 5.8 mph - N/A   Clear
7:15 PM 53.6 °F - 21.2 °F 28% 30.09 in 10.0 mi ENE 10.4 mph - N/A   Clear
7:35 PM 53.6 °F - 21.2 °F 28% 30.10 in 10.0 mi ENE 12.7 mph 17.3 mph N/A   Clear
7:55 PM 51.8 °F - 21.2 °F 30% 30.11 in 10.0 mi ENE 10.4 mph - N/A   Clear
8:15 PM 50.0 °F - 19.4 °F 30% 30.13 in 10.0 mi ENE 15.0 mph 21.9 mph N/A   Clear
8:35 PM 48.2 °F - 19.4 °F 32% 30.14 in 10.0 mi ENE 18.4 mph 23.0 mph N/A   Clear
8:55 PM 46.4 °F 40.1 °F 19.4 °F 34% 30.17 in 10.0 mi ENE 15.0 mph 20.7 mph N/A   Clear
9:15 PM 46.4 °F 39.8 °F 19.4 °F 34% 30.18 in 10.0 mi ENE 16.1 mph 24.2 mph N/A   Clear
9:35 PM 44.6 °F 37.8 °F 19.4 °F 37% 30.19 in 10.0 mi ENE 15.0 mph 23.0 mph N/A   Clear
9:55 PM 44.6 °F 37.2 °F 21.2 °F 39% 30.21 in 10.0 mi ENE 17.3 mph 28.8 mph N/A   Clear
10:15 PM 42.8 °F 34.8 °F 19.4 °F 39% 30.23 in 10.0 mi ENE 17.3 mph 21.9 mph N/A   Clear
10:35 PM 42.8 °F 35.4 °F 19.4 °F 39% 30.25 in 10.0 mi ENE 15.0 mph 23.0 mph N/A   Clear
10:55 PM 42.8 °F 35.4 °F 19.4 °F 39% 30.26 in 10.0 mi ENE 15.0 mph 23.0 mph N/A   Clear
11:15 PM 41.0 °F 31.6 °F 17.6 °F 39% 30.29 in 10.0 mi NE 20.7 mph 28.8 mph N/A   Clear
11:35 PM 37.4 °F 26.1 °F 14.0 °F 38% 30.30 in 10.0 mi NE 24.2 mph 32.2 mph N/A   Clear
11:55 PM 33.8 °F 21.9 °F 10.4 °F 38% 30.33 in 10.0 mi NNE 21.9 mph 27.6 mph N/A   Clear